Matlacha, Florida
Current Conditions -  °F | °C
As of 11:53 AM on Thursday 30 Oct 2014 (Local Time) from KFMY Reporting Station
Clear Clear  
Wind Chill: 28°   Ceiling: Unl
Heat Index: 29°   Visibility: 10mi
Dew Point: 17°   Wind: 6mph
Humidity: 51%   Direction: 100°E
Pressure: 29.96"   Gusts: NA
Location:  26.6904°N, 82.0304°W
Report Text: KFMY 301553Z 10005KT 10SM CLR 28/17 A2996 RMK AO2 SLP148 T02830172
Loading
Personal Weather Stations






























Interactive Weather Map
Tropical Storm Tracking
New forecast layout! Learn more

10-Day Weather Forecast

Advertisements
Track Severe Weather on mobile